^^
Station Historical Data
 
Daily Summary for December 02, 2016 Units:  English    Metric   Both
« Previous Day
Next Day »
Daily Weekly Monthly Yearly Custom
  Current: High: Low: Average:
Temperature: 61.6 °F 73.0 °F 55.2 °F 63.7 °F
Dew Point: 52.1 °F 59.9 °F 42.8 °F 50.5 °F
Humidity: 71% 92% 36% 65%
Wind Speed: 3.5mph 11.5mph 0.0mph 3.8mph
Wind Gust: 3.5mph 11.5mph - -
WindNE - - SW
Pressure: 30.12 in 30.15 in 30.01 in -
Precipitation: 0.00 in      
Historical Graphs
 
 
Tabular Data for December 02, 2016
Time Temperature Dew Point Pressure Wind Wind Speed Wind Gust Humidity Rainfall Rate (Hourly) solar Conditions
00:00 63.1 °F 59.8 °F 30.01 in WSW 1.2 mph 1.2 mph 89% 0.00 in 0.0 W/m2 CLR
00:05 63.0 °F 59.7 °F 30.02 in NW 1.2 mph 1.2 mph 89% 0.00 in 0.0 W/m2 CLR
00:10 62.9 °F 59.9 °F 30.02 in WNW 1.2 mph   90% 0.00 in 0.0 W/m2 CLR
00:15 62.7 °F 59.7 °F 30.02 in NNW 3.5 mph 3.5 mph 90% 0.00 in 0.0 W/m2 CLR
00:20 62.6 °F 59.6 °F 30.02 in NNW 2.3 mph   90% 0.00 in 0.0 W/m2 CLR
00:25 62.5 °F 59.5 °F 30.02 in WNW 2.3 mph 2.3 mph 90% 0.00 in 0.0 W/m2 CLR
00:30 62.3 °F 59.3 °F 30.01 in NNW 2.3 mph 2.3 mph 90% 0.00 in 0.0 W/m2 CLR
00:35 62.2 °F 59.2 °F 30.01 in WNW 3.5 mph 3.5 mph 90% 0.00 in 0.0 W/m2 CLR
00:40 62.0 °F 59.0 °F 30.01 in West 1.2 mph 1.2 mph 90% 0.00 in 0.0 W/m2 CLR
00:45 61.9 °F 58.9 °F 30.01 in NNW 1.2 mph 1.2 mph 90% 0.00 in 0.0 W/m2 CLR
00:50 61.8 °F 59.1 °F 30.01 in NNW 1.2 mph 1.2 mph 91% 0.00 in 0.0 W/m2 CLR
00:55 61.6 °F 58.9 °F 30.01 in NNW 1.2 mph   91% 0.00 in 0.0 W/m2 CLR
01:00 61.5 °F 58.8 °F 30.01 in NNW 1.2 mph   91% 0.00 in 0.0 W/m2 CLR
01:05 61.4 °F 58.7 °F 30.01 in Calm     91% 0.00 in 0.0 W/m2 CLR
01:10 61.3 °F 58.7 °F 30.01 in WNW 1.2 mph 1.2 mph 91% 0.00 in 0.0 W/m2 CLR
01:15 61.2 °F 58.6 °F 30.02 in Calm     91% 0.00 in 0.0 W/m2 CLR
01:20 61.1 °F 58.5 °F 30.02 in NW 1.2 mph 1.2 mph 91% 0.00 in 0.0 W/m2 CLR
01:25 61.0 °F 58.7 °F 30.02 in NNW 1.2 mph 1.2 mph 92% 0.00 in 0.0 W/m2 CLR
01:30 60.9 °F 58.6 °F 30.02 in WNW 2.3 mph 2.3 mph 92% 0.00 in 0.0 W/m2 CLR
01:35 60.9 °F 58.6 °F 30.02 in NW 1.2 mph   92% 0.00 in 0.0 W/m2 CLR
01:40 60.7 °F 58.4 °F 30.02 in Calm     92% 0.00 in 0.0 W/m2 CLR
01:45 60.6 °F 58.3 °F 30.02 in NNE 1.2 mph 1.2 mph 92% 0.00 in 0.0 W/m2 CLR
01:50 60.4 °F 58.1 °F 30.02 in Calm     92% 0.00 in 0.0 W/m2 CLR
01:55 60.3 °F 58.0 °F 30.02 in WNW 1.2 mph 1.2 mph 92% 0.00 in 0.0 W/m2 CLR
02:00 60.2 °F 57.6 °F 30.02 in NNW 1.2 mph 1.2 mph 91% 0.00 in 0.0 W/m2 CLR
02:05 60.1 °F 57.5 °F 30.02 in NNW 1.2 mph 1.2 mph 91% 0.00 in 0.0 W/m2 CLR
02:10 60.0 °F 57.1 °F 30.02 in NNW 1.2 mph 1.2 mph 90% 0.00 in 0.0 W/m2 CLR
02:20 59.9 °F 57.0 °F 30.03 in NW 1.2 mph 1.2 mph 90% 0.00 in 0.0 W/m2 CLR
02:25 60.0 °F 57.1 °F 30.03 in NNW 3.0 mph 3.0 mph 90% 0.00 in 0.0 W/m2 CLR
02:30 59.9 °F 57.0 °F 30.03 in NNW 1.2 mph 1.2 mph 90% 0.00 in 0.0 W/m2 CLR
02:40 59.7 °F 56.8 °F 30.03 in NNW 1.2 mph 1.2 mph 90% 0.00 in 0.0 W/m2 CLR
02:45 59.6 °F 57.0 °F 30.03 in NW 1.2 mph 1.2 mph 91% 0.00 in 0.0 W/m2 CLR
02:50 59.5 °F 56.9 °F 30.04 in NNW 2.3 mph 2.3 mph 91% 0.00 in 0.0 W/m2 CLR
02:55 59.4 °F 56.8 °F 30.03 in WNW 2.3 mph 2.3 mph 91% 0.00 in 0.0 W/m2 CLR
03:00 59.3 °F 56.7 °F 30.04 in NNW 1.2 mph   91% 0.00 in 0.0 W/m2 CLR
03:05 59.2 °F 56.3 °F 30.03 in West 2.3 mph 2.3 mph 90% 0.00 in 0.0 W/m2 CLR
03:10 59.1 °F 56.2 °F 30.03 in NNW 1.2 mph 1.2 mph 90% 0.00 in 0.0 W/m2 CLR
03:15 58.9 °F 55.7 °F 30.03 in NNW 3.5 mph 3.5 mph 89% 0.00 in 0.0 W/m2 CLR
03:20 58.9 °F 55.4 °F 30.03 in NNW 2.3 mph 2.3 mph 88% 0.00 in 0.0 W/m2 CLR
03:25 58.9 °F 55.4 °F 30.04 in WNW 2.3 mph 2.3 mph 88% 0.00 in 0.0 W/m2 CLR
03:30 58.8 °F 54.9 °F 30.04 in NNW 2.3 mph 2.3 mph 87% 0.00 in 0.0 W/m2 CLR
03:35 58.7 °F 54.5 °F 30.04 in Calm   0.1 mph 86% 0.00 in 0.0 W/m2 CLR
03:40 58.7 °F 53.9 °F 30.04 in NNW 4.6 mph 4.6 mph 84% 0.00 in 0.0 W/m2 CLR
03:45 58.7 °F 53.2 °F 30.04 in NW 3.5 mph 3.5 mph 82% 0.00 in 0.0 W/m2 CLR
03:50 58.7 °F 52.9 °F 30.04 in NNW 3.5 mph 3.5 mph 81% 0.00 in 0.0 W/m2 CLR
03:55 58.8 °F 53.0 °F 30.04 in North 3.5 mph 3.5 mph 81% 0.00 in 0.0 W/m2 CLR
04:00 58.7 °F 52.2 °F 30.04 in NW 3.5 mph 3.5 mph 79% 0.00 in 0.0 W/m2 CLR
04:05 58.7 °F 52.2 °F 30.04 in NW 1.2 mph 1.2 mph 79% 0.00 in 0.0 W/m2 CLR
04:10 58.6 °F 51.4 °F 30.04 in NE 4.6 mph 4.6 mph 77% 0.00 in 0.0 W/m2 CLR
04:15 58.6 °F 50.3 °F 30.04 in ENE 4.6 mph 4.6 mph 74% 0.00 in 0.0 W/m2 CLR
04:20 58.7 °F 49.7 °F 30.05 in NW 3.5 mph 3.5 mph 72% 0.00 in 0.0 W/m2 CLR
04:25 58.6 °F 49.6 °F 30.05 in NNW 6.9 mph 6.9 mph 72% 0.00 in 0.0 W/m2 CLR
04:30 58.6 °F 49.2 °F 30.05 in ENE 5.8 mph 5.8 mph 71% 0.00 in 0.0 W/m2 CLR
04:35 58.5 °F 49.1 °F 30.05 in NE 3.5 mph 3.5 mph 71% 0.00 in 0.0 W/m2 CLR
04:40 58.4 °F 49.0 °F 30.05 in NE 4.6 mph 4.6 mph 71% 0.00 in 0.0 W/m2 CLR
04:50 58.3 °F 48.9 °F 30.06 in NNW 6.9 mph 6.9 mph 71% 0.00 in 0.0 W/m2 CLR
04:55 58.2 °F 48.8 °F 30.06 in North 2.3 mph 2.3 mph 71% 0.00 in 0.0 W/m2 CLR
05:00 58.0 °F 48.6 °F 30.06 in NW 3.5 mph 3.5 mph 71% 0.00 in 0.0 W/m2 CLR
05:05 58.0 °F 48.6 °F 30.06 in WNW 3.5 mph 3.5 mph 71% 0.00 in 0.0 W/m2 CLR
05:10 57.9 °F 48.9 °F 30.06 in WSW 1.2 mph 1.2 mph 72% 0.00 in 0.0 W/m2 CLR
05:15 57.7 °F 49.1 °F 30.07 in NW 3.5 mph 3.5 mph 73% 0.00 in 0.0 W/m2 CLR
05:20 57.5 °F 48.9 °F 30.07 in WNW 6.9 mph 6.9 mph 73% 0.00 in 0.0 W/m2 CLR
05:25 57.3 °F 49.1 °F 30.07 in WNW 1.2 mph 1.2 mph 74% 0.00 in 0.0 W/m2 CLR
05:30 57.1 °F 48.9 °F 30.07 in NNW 1.2 mph 1.2 mph 74% 0.00 in 0.0 W/m2 CLR
05:35 57.0 °F 48.4 °F 30.08 in NW 5.0 mph 5.0 mph 73% 0.00 in 0.0 W/m2 CLR
05:40 56.9 °F 48.3 °F 30.07 in West 3.5 mph 3.5 mph 73% 0.00 in 0.0 W/m2 CLR
05:45 56.7 °F 48.1 °F 30.07 in NNW 3.5 mph 3.5 mph 73% 0.00 in 0.0 W/m2 CLR
05:50 56.7 °F 47.8 °F 30.08 in WNW 3.5 mph 3.5 mph 72% 0.00 in 0.0 W/m2 CLR
05:55 56.6 °F 47.3 °F 30.08 in WNW 4.6 mph 4.6 mph 71% 0.00 in 0.0 W/m2 CLR
06:00 56.6 °F 47.3 °F 30.08 in NNW 2.3 mph 2.3 mph 71% 0.00 in 0.0 W/m2 CLR
06:05 56.5 °F 47.2 °F 30.08 in NW 3.5 mph 3.5 mph 71% 0.00 in 0.0 W/m2 CLR
06:10 56.4 °F 47.1 °F 30.08 in NW 1.2 mph 1.2 mph 71% 0.00 in 0.0 W/m2 CLR
06:15 56.3 °F 46.6 °F 30.09 in North 4.0 mph 4.0 mph 70% 0.00 in 0.0 W/m2 CLR
06:20 56.2 °F 46.5 °F 30.08 in WNW 3.5 mph 3.6 mph 70% 0.00 in 0.0 W/m2 CLR
06:25 56.2 °F 46.2 °F 30.09 in NW 3.5 mph 3.5 mph 69% 0.00 in 0.0 W/m2 CLR
06:30 56.1 °F 46.1 °F 30.09 in NNW 2.3 mph 2.3 mph 69% 0.00 in 0.0 W/m2 CLR
06:35 56.1 °F 46.1 °F 30.09 in NW 3.5 mph 3.5 mph 69% 0.00 in 0.0 W/m2 CLR
06:40 56.0 °F 46.4 °F 30.09 in NNW 1.2 mph 1.2 mph 70% 0.00 in 0.0 W/m2 CLR
06:45 55.8 °F 46.5 °F 30.09 in NNW 1.2 mph 1.2 mph 71% 0.00 in 0.0 W/m2 CLR
06:50 55.7 °F 46.4 °F 30.10 in NW 3.5 mph 3.5 mph 71% 0.00 in 0.0 W/m2 CLR
06:55 55.6 °F 46.7 °F 30.10 in NW 6.9 mph 6.9 mph 72% 0.00 in 0.0 W/m2 CLR
07:00 55.5 °F 47.0 °F 30.10 in NW 1.2 mph   73% 0.00 in 0.0 W/m2 CLR
07:05 55.4 °F 46.9 °F 30.10 in WNW 3.5 mph 3.5 mph 73% 0.00 in 0.0 W/m2 CLR
07:10 55.2 °F 46.7 °F 30.10 in NNE 2.3 mph 2.3 mph 73% 0.00 in 0.0 W/m2 CLR
07:15 55.2 °F 46.7 °F 30.11 in NNW 3.5 mph 3.5 mph 73% 0.00 in 0.0 W/m2 CLR
07:20 55.2 °F 46.3 °F 30.11 in WNW 3.5 mph 3.5 mph 72% 0.00 in 0.0 W/m2 CLR
07:25 55.2 °F 46.0 °F 30.11 in NW 3.5 mph 3.5 mph 71% 0.00 in 0.0 W/m2 CLR
07:30 55.4 °F 46.2 °F 30.11 in West 2.3 mph 2.3 mph 71% 0.00 in 0.0 W/m2 CLR
07:40 55.6 °F 46.0 °F 30.11 in NNE 3.5 mph 3.5 mph 70% 0.00 in 0.0 W/m2 CLR
07:45 55.8 °F 46.5 °F 30.11 in NNW 2.0 mph 2.0 mph 71% 0.00 in 0.0 W/m2 CLR
07:50 55.9 °F 46.3 °F 30.11 in North 3.5 mph 3.5 mph 70% 0.00 in 0.0 W/m2 CLR
07:55 56.1 °F 46.4 °F 30.12 in WNW 5.8 mph 5.8 mph 70% 0.00 in 0.0 W/m2 CLR
08:00 56.4 °F 46.7 °F 30.12 in NNW 1.2 mph 1.2 mph 70% 0.00 in 0.0 W/m2 CLR
08:05 56.7 °F 46.6 °F 30.12 in NE 2.0 mph 2.0 mph 69% 0.00 in 0.0 W/m2 CLR
08:10 56.9 °F 46.8 °F 30.12 in NNE 4.0 mph 4.0 mph 69% 0.00 in 0.0 W/m2 CLR
08:15 57.2 °F 47.5 °F 30.12 in NW 3.5 mph 3.5 mph 70% 0.00 in 0.0 W/m2 CLR
08:20 57.5 °F 47.4 °F 30.12 in NNW 5.8 mph 5.8 mph 69% 0.00 in 0.0 W/m2 CLR
08:25 57.9 °F 47.8 °F 30.13 in NNW 3.5 mph 3.5 mph 69% 0.00 in 0.0 W/m2 CLR
08:30 58.3 °F 48.6 °F 30.13 in NNW 6.0 mph 6.0 mph 70% 0.00 in 0.0 W/m2 CLR
08:35 58.6 °F 48.5 °F 30.13 in NNW 4.6 mph 4.6 mph 69% 0.00 in 0.0 W/m2 CLR
08:40 58.9 °F 48.7 °F 30.13 in NW 3.5 mph 3.5 mph 69% 0.00 in 0.0 W/m2 CLR
08:45 59.4 °F 48.8 °F 30.14 in NW 4.0 mph 4.0 mph 68% 0.00 in 0.0 W/m2 CLR
08:50 59.6 °F 49.0 °F 30.14 in NNW 4.6 mph 4.6 mph 68% 0.00 in 0.0 W/m2 CLR
08:55 59.7 °F 48.7 °F 30.14 in East 10.4 mph 10.4 mph 67% 0.00 in 0.0 W/m2 CLR
09:00 60.2 °F 49.2 °F 30.14 in NW 3.5 mph 3.5 mph 67% 0.00 in 0.0 W/m2 CLR
09:05 60.4 °F 49.0 °F 30.14 in WSW 4.6 mph 4.6 mph 66% 0.00 in 0.0 W/m2 CLR
09:15 61.1 °F 49.2 °F 30.14 in NW 8.1 mph 8.1 mph 65% 0.00 in 0.0 W/m2 CLR
09:20 61.2 °F 49.3 °F 30.14 in NNW 6.0 mph 6.0 mph 65% 0.00 in 0.0 W/m2 CLR
09:25 61.6 °F 50.1 °F 30.14 in NE 3.0 mph 3.0 mph 66% 0.00 in 0.0 W/m2 CLR
09:30 61.6 °F 49.3 °F 30.14 in ENE 10.4 mph 10.4 mph 64% 0.00 in 0.0 W/m2 CLR
09:35 61.7 °F 49.4 °F 30.15 in WNW 11.5 mph 11.5 mph 64% 0.00 in 0.0 W/m2 CLR
09:40 61.9 °F 50.0 °F 30.14 in ENE 8.0 mph 8.0 mph 65% 0.00 in 0.0 W/m2 CLR
09:45 61.8 °F 49.5 °F 30.15 in NNW 9.2 mph 9.2 mph 64% 0.00 in 0.0 W/m2 CLR
09:50 62.0 °F 49.7 °F 30.15 in NNE 9.2 mph 9.2 mph 64% 0.00 in 0.0 W/m2 CLR
09:55 62.1 °F 50.2 °F 30.14 in North 8.1 mph 8.1 mph 65% 0.00 in 0.0 W/m2 CLR
10:00 62.5 °F 50.2 °F 30.14 in SE 9.2 mph 9.2 mph 64% 0.00 in 0.0 W/m2 CLR
10:05 62.9 °F 50.5 °F 30.15 in ESE 3.5 mph 3.5 mph 64% 0.00 in 0.0 W/m2 CLR
10:10 63.3 °F 50.9 °F 30.15 in West 2.3 mph 2.3 mph 64% 0.00 in 0.0 W/m2 CLR
10:15 63.6 °F 49.9 °F 30.15 in NNW 5.8 mph 5.8 mph 61% 0.00 in 0.0 W/m2 CLR
10:20 64.0 °F 50.3 °F 30.14 in NE 4.0 mph 4.0 mph 61% 0.00 in 0.0 W/m2 CLR
10:25 64.1 °F 50.8 °F 30.15 in NE 4.6 mph 4.6 mph 62% 0.00 in 0.0 W/m2 CLR
10:30 64.5 °F 50.3 °F 30.14 in NNW 8.1 mph 8.1 mph 60% 0.00 in 0.0 W/m2 CLR
10:35 64.9 °F 52.0 °F 30.14 in WNW 4.6 mph 4.6 mph 63% 0.00 in 0.0 W/m2 CLR
10:40 65.4 °F 50.7 °F 30.14 in NNE 4.6 mph 4.6 mph 59% 0.00 in 0.0 W/m2 CLR
10:45 65.4 °F 50.7 °F 30.14 in North 8.1 mph 8.1 mph 59% 0.00 in 0.0 W/m2 CLR
10:50 65.5 °F 50.8 °F 30.14 in NE 4.6 mph 4.6 mph 59% 0.00 in 0.0 W/m2 CLR
10:55 65.7 °F 51.0 °F 30.14 in NE 6.9 mph 7.5 mph 59% 0.00 in 0.0 W/m2 CLR
11:00 65.9 °F 50.7 °F 30.14 in NE 6.0 mph 6.0 mph 58% 0.00 in 0.0 W/m2 CLR
11:05 66.4 °F 51.2 °F 30.14 in ENE 7.0 mph 7.0 mph 58% 0.00 in 0.0 W/m2 CLR
11:10 66.8 °F 51.1 °F 30.14 in ENE 3.5 mph 3.5 mph 57% 0.00 in 0.0 W/m2 CLR
11:15 67.4 °F 51.6 °F 30.13 in ENE 4.6 mph 4.6 mph 57% 0.00 in 0.0 W/m2 CLR
11:20 67.6 °F 50.4 °F 30.13 in NW 3.5 mph 3.5 mph 54% 0.00 in 0.0 W/m2 CLR
11:25 67.7 °F 51.4 °F 30.13 in NW 6.0 mph 6.0 mph 56% 0.00 in 0.0 W/m2 CLR
11:30 68.2 °F 50.4 °F 30.13 in NW 5.8 mph 5.8 mph 53% 0.00 in 0.0 W/m2 CLR
11:35 68.5 °F 50.2 °F 30.13 in NE 3.5 mph 3.5 mph 52% 0.00 in 0.0 W/m2 CLR
11:40 68.4 °F 50.1 °F 30.13 in NNW 4.6 mph 4.6 mph 52% 0.00 in 0.0 W/m2 CLR
11:45 68.5 °F 50.2 °F 30.13 in WNW 3.5 mph 3.5 mph 52% 0.00 in 0.0 W/m2 CLR
11:50 68.7 °F 50.9 °F 30.12 in NNW 4.6 mph 4.6 mph 53% 0.00 in 0.0 W/m2 CLR
11:55 68.8 °F 49.9 °F 30.12 in NE 4.0 mph 4.0 mph 51% 0.00 in 0.0 W/m2 CLR
12:00 68.6 °F 49.7 °F 30.12 in West 5.8 mph 5.8 mph 51% 0.00 in 0.0 W/m2 CLR
12:05 69.3 °F 49.9 °F 30.12 in NNW 3.5 mph 3.5 mph 50% 0.00 in 0.0 W/m2 CLR
12:10 69.5 °F 50.0 °F 30.11 in NE 3.5 mph 3.5 mph 50% 0.00 in 0.0 W/m2 CLR
12:15 69.4 °F 49.9 °F 30.11 in NW 5.8 mph 5.8 mph 50% 0.00 in 0.0 W/m2 CLR
12:20 69.4 °F 49.4 °F 30.11 in ENE 5.8 mph 5.8 mph 49% 0.00 in 0.0 W/m2 CLR
12:25 69.5 °F 50.6 °F 30.10 in NE 5.8 mph 5.8 mph 51% 0.00 in 0.0 W/m2 CLR
12:30 69.8 °F 50.3 °F 30.10 in ENE 3.5 mph 3.5 mph 50% 0.00 in 0.0 W/m2 CLR
12:35 70.0 °F 50.5 °F 30.10 in West 3.5 mph 3.5 mph 50% 0.00 in 0.0 W/m2 CLR
12:40 70.1 °F 49.5 °F 30.10 in NNW 5.0 mph 5.0 mph 48% 0.00 in 0.0 W/m2 CLR
12:45 70.1 °F 49.5 °F 30.09 in ENE 3.5 mph 3.5 mph 48% 0.00 in 0.0 W/m2 CLR
12:50 70.3 °F 49.7 °F 30.09 in NW 6.0 mph 6.0 mph 48% 0.00 in 0.0 W/m2 CLR
12:55 70.1 °F 48.4 °F 30.09 in NE 4.6 mph 4.6 mph 46% 0.00 in 0.0 W/m2 CLR
13:00 70.3 °F 49.1 °F 30.09 in NW 5.8 mph 5.8 mph 47% 0.00 in 0.0 W/m2 CLR
13:05 70.5 °F 48.7 °F 30.09 in NE 3.5 mph 3.5 mph 46% 0.00 in 0.0 W/m2 CLR
13:10 70.9 °F 47.9 °F 30.09 in WNW 4.0 mph 4.0 mph 44% 0.00 in 0.0 W/m2 CLR
13:15 70.9 °F 48.5 °F 30.09 in West 6.9 mph 6.9 mph 45% 0.00 in 0.0 W/m2 CLR
13:20 71.0 °F 47.4 °F 30.09 in NNW 5.0 mph 5.0 mph 43% 0.00 in 0.0 W/m2 CLR
13:25 71.3 °F 47.0 °F 30.09 in WNW 6.9 mph 6.9 mph 42% 0.00 in 0.0 W/m2 CLR
13:30 71.2 °F 47.6 °F 30.08 in NW 3.5 mph 3.5 mph 43% 0.00 in 0.0 W/m2 CLR
13:35 71.6 °F 48.5 °F 30.08 in NNW 1.2 mph 1.2 mph 44% 0.00 in 0.0 W/m2 CLR
13:40 71.8 °F 46.2 °F 30.08 in West 3.5 mph 3.5 mph 40% 0.00 in 0.0 W/m2 CLR
13:45 71.4 °F 46.5 °F 30.08 in North 5.8 mph 5.8 mph 41% 0.00 in 0.0 W/m2 CLR
13:50 71.3 °F 45.1 °F 30.08 in NNE 5.8 mph 5.8 mph 39% 0.00 in 0.0 W/m2 CLR
13:55 71.6 °F 46.0 °F 30.08 in ENE 10.4 mph 10.4 mph 40% 0.00 in 0.0 W/m2 CLR
14:00 71.9 °F 44.9 °F 30.08 in NNW 4.6 mph 4.6 mph 38% 0.00 in 0.0 W/m2 CLR
14:05 71.8 °F 46.2 °F 30.08 in NW 6.9 mph 6.9 mph 40% 0.00 in 0.0 W/m2 CLR
14:10 72.0 °F 47.6 °F 30.08 in NNW 4.6 mph 4.6 mph 42% 0.00 in 0.0 W/m2 CLR
14:15 72.3 °F 46.6 °F 30.08 in NW 6.9 mph 6.9 mph 40% 0.00 in 0.0 W/m2 CLR
14:20 72.4 °F 47.4 °F 30.08 in North 3.5 mph 3.5 mph 41% 0.00 in 0.0 W/m2 CLR
14:25 72.4 °F 47.4 °F 30.08 in NNW 4.6 mph 4.6 mph 41% 0.00 in 0.0 W/m2 CLR
14:30 72.6 °F 46.9 °F 30.08 in NE 4.0 mph 4.0 mph 40% 0.00 in 0.0 W/m2 CLR
14:35 72.6 °F 46.9 °F 30.08 in NE 2.3 mph 2.3 mph 40% 0.00 in 0.0 W/m2 CLR
14:41 72.7 °F 47.6 °F 30.08 in WNW 3.5 mph 3.5 mph 41% 0.00 in 0.0 W/m2 CLR
14:45 73.0 °F 47.9 °F 30.08 in NE 3.5 mph 3.5 mph 41% 0.00 in 0.0 W/m2 CLR
14:50 72.8 °F 46.4 °F 30.07 in West 4.6 mph 4.6 mph 39% 0.00 in 0.0 W/m2 CLR
14:55 72.9 °F 47.8 °F 30.08 in NW 3.5 mph 3.5 mph 41% 0.00 in 0.0 W/m2 CLR
15:00 72.9 °F 46.5 °F 30.08 in NNW 3.5 mph 3.5 mph 39% 0.00 in 0.0 W/m2 CLR
15:05 72.7 °F 47.0 °F 30.08 in NW 3.5 mph 3.5 mph 40% 0.00 in 0.0 W/m2 CLR
15:10 72.6 °F 46.9 °F 30.08 in West 4.6 mph 4.6 mph 40% 0.00 in 0.0 W/m2 CLR
15:15 72.6 °F 46.9 °F 30.08 in NW 3.5 mph 3.5 mph 40% 0.00 in 0.0 W/m2 CLR
15:20 72.8 °F 47.1 °F 30.08 in NNW 3.5 mph 3.5 mph 40% 0.00 in 0.0 W/m2 CLR
15:25 72.9 °F 47.2 °F 30.08 in NNW 3.5 mph 3.5 mph 40% 0.00 in 0.0 W/m2 CLR
15:30 72.8 °F 46.4 °F 30.08 in West 3.5 mph 3.5 mph 39% 0.00 in 0.0 W/m2 CLR
15:35 72.8 °F 46.4 °F 30.08 in WNW 3.5 mph 3.5 mph 39% 0.00 in 0.0 W/m2 CLR
15:40 72.6 °F 46.2 °F 30.08 in NE 5.8 mph 5.8 mph 39% 0.00 in 0.0 W/m2 CLR
15:46 72.7 °F 47.0 °F 30.08 in NNW 3.5 mph 3.5 mph 40% 0.00 in 0.0 W/m2 CLR
15:50 72.7 °F 47.0 °F 30.08 in NNW 2.3 mph 2.3 mph 40% 0.00 in 0.0 W/m2 CLR
15:55 72.8 °F 47.1 °F 30.08 in NE 3.0 mph 3.0 mph 40% 0.00 in 0.0 W/m2 CLR
16:00 72.6 °F 46.9 °F 30.08 in ENE 6.9 mph 6.9 mph 40% 0.00 in 0.0 W/m2 CLR
16:05 72.3 °F 45.9 °F 30.08 in NNW 3.5 mph 3.5 mph 39% 0.00 in 0.0 W/m2 CLR
16:10 72.2 °F 45.9 °F 30.08 in NNW 4.6 mph 4.6 mph 39% 0.00 in 0.0 W/m2 CLR
16:15 72.3 °F 45.3 °F 30.08 in NE 3.5 mph 3.5 mph 38% 0.00 in 0.0 W/m2 CLR
16:20 72.1 °F 45.1 °F 30.08 in NNW 5.8 mph 5.8 mph 38% 0.00 in 0.0 W/m2 CLR
16:25 72.2 °F 44.5 °F 30.08 in NNW 4.0 mph 4.0 mph 37% 0.00 in 0.0 W/m2 CLR
16:30 72.0 °F 44.3 °F 30.08 in NE 4.0 mph 4.0 mph 37% 0.00 in 0.0 W/m2 CLR
16:35 71.7 °F 43.3 °F 30.08 in NW 3.5 mph 3.5 mph 36% 0.00 in 0.0 W/m2 CLR
16:40 71.3 °F 43.0 °F 30.08 in NNW 3.5 mph 3.5 mph 36% 0.00 in 0.0 W/m2 CLR
16:45 71.1 °F 42.8 °F 30.08 in NW 3.5 mph 3.5 mph 36% 0.00 in 0.0 W/m2 CLR
16:50 70.9 °F 43.3 °F 30.08 in NNW 3.5 mph 3.5 mph 37% 0.00 in 0.0 W/m2 CLR
16:55 70.9 °F 43.3 °F 30.08 in NE 3.5 mph 3.5 mph 37% 0.00 in 0.0 W/m2 CLR
17:00 70.5 °F 43.7 °F 30.08 in NNW 3.0 mph 3.0 mph 38% 0.00 in 0.0 W/m2 CLR
17:05 70.1 °F 43.3 °F 30.08 in NNE 4.0 mph 4.0 mph 38% 0.00 in 0.0 W/m2 CLR
17:10 69.5 °F 43.4 °F 30.08 in East 2.3 mph 2.3 mph 39% 0.00 in 0.0 W/m2 CLR
17:15 68.8 °F 46.6 °F 30.09 in NE 3.5 mph 3.5 mph 45% 0.00 in 0.0 W/m2 CLR
17:20 68.1 °F 51.8 °F 30.09 in ENE 5.8 mph 5.8 mph 56% 0.00 in 0.0 W/m2 CLR
17:26 67.5 °F 52.2 °F 30.09 in NE 3.5 mph 3.5 mph 58% 0.00 in 0.0 W/m2 CLR
17:30 67.1 °F 53.6 °F 30.09 in ENE 6.9 mph 6.9 mph 62% 0.00 in 0.0 W/m2 CLR
17:35 66.6 °F 54.0 °F 30.09 in ENE 3.5 mph 3.5 mph 64% 0.00 in 0.0 W/m2 CLR
17:40 66.2 °F 54.1 °F 30.09 in NE 4.0 mph 4.0 mph 65% 0.00 in 0.0 W/m2 CLR
17:45 65.9 °F 54.2 °F 30.10 in NE 3.5 mph 3.5 mph 66% 0.00 in 0.0 W/m2 CLR
17:50 65.6 °F 53.9 °F 30.10 in NE 4.6 mph 4.6 mph 66% 0.00 in 0.0 W/m2 CLR
17:55 65.2 °F 54.0 °F 30.10 in ENE 5.8 mph 5.8 mph 67% 0.00 in 0.0 W/m2 CLR
18:00 64.9 °F 53.7 °F 30.10 in ENE 4.0 mph 4.0 mph 67% 0.00 in 0.0 W/m2 CLR
18:06 64.6 °F 53.8 °F 30.10 in NE 3.5 mph 3.5 mph 68% 0.00 in 0.0 W/m2 CLR
18:10 64.3 °F 53.5 °F 30.10 in East 4.0 mph 4.0 mph 68% 0.00 in 0.0 W/m2 CLR
18:16 64.0 °F 53.2 °F 30.11 in ENE 4.6 mph 4.6 mph 68% 0.00 in 0.0 W/m2 CLR
18:21 63.8 °F 53.0 °F 30.11 in ENE 5.8 mph 5.8 mph 68% 0.00 in 0.0 W/m2 CLR
18:26 63.5 °F 52.7 °F 30.11 in ENE 4.6 mph 4.6 mph 68% 0.00 in 0.0 W/m2 CLR
18:31 63.2 °F 52.9 °F 30.11 in ENE 3.5 mph 3.5 mph 69% 0.00 in 0.0 W/m2 CLR
18:36 62.9 °F 53.0 °F 30.11 in NE 2.3 mph 2.3 mph 70% 0.00 in 0.0 W/m2 CLR
18:41 62.6 °F 52.7 °F 30.12 in ENE 1.2 mph 1.2 mph 70% 0.00 in 0.0 W/m2 CLR
18:46 62.4 °F 52.9 °F 30.12 in ENE 3.5 mph 3.5 mph 71% 0.00 in 0.0 W/m2 CLR
18:51 62.2 °F 53.1 °F 30.12 in ENE 2.3 mph 2.3 mph 72% 0.00 in 0.0 W/m2 CLR
18:55 62.0 °F 52.9 °F 30.12 in NE 3.0 mph 3.0 mph 72% 0.00 in 0.0 W/m2 CLR
19:00 61.9 °F 52.4 °F 30.12 in NE 2.3 mph 2.3 mph 71% 0.00 in 0.0 W/m2 CLR
19:06 61.7 °F 52.6 °F 30.12 in NNW 2.0 mph 2.0 mph 72% 0.00 in 0.0 W/m2 CLR
19:10 61.6 °F 52.1 °F 30.12 in NE 4.6 mph 4.6 mph 71% 0.00 in 0.0 W/m2 CLR
19:15 61.6 °F 52.1 °F 30.12 in NE 3.5 mph 3.5 mph 71% 0.00 in 0.0 W/m2 CLR
Lake Mary, FL, USA
Compliments of Weather Underground - 1.75 mb